Terminal Aerodrome Forecast
Issued by NWS

Home | Current Version | Previous Version | Text Only | Print | Product List | Glossary Off
Versions: 1 2 3 4 5 6 7 8 9 10 11 12 13 14 15 16 17 18 19 20

000
FTUS43 KGRB 220520
TAFATW
TAF
KATW 220520Z 2206/2306 25006KT P6SM BKN250
     FM220800 29004KT 6SM BR SCT250
      TEMPO 2208/2211 3SM BR SCT004
     FM221300 33005KT P6SM SKC
     FM221900 26006KT P6SM SKC
     FM230000 22005KT P6SM SKC=

USA.gov is the U.S. government's official web portal to all federal, state and local government web resources and services.